Time,TemperatureF,DewpointF,PressureIn,WindDirection,WindDirectionDegrees,WindSpeedMPH,WindSpeedGustMPH,Humidity,HourlyPrecipIn,Conditions,Clouds,dailyrainin,SoftwareType,DateUTC
2013-10-02 00:13:00,28.1,26.1,30.11,South,178,0.0,0.0,92,0.00,,,0.00,Wunderground v.1.15,2013-10-02 07:13:00,
2013-10-02 00:23:00,28.0,26.0,30.11,South,178,0.0,0.0,92,0.00,,,0.00,Wunderground v.1.15,2013-10-02 07:23:00,
2013-10-02 00:29:00,27.9,25.9,30.11,South,178,0.0,0.0,92,0.00,,,0.00,Wunderground v.1.15,2013-10-02 07:29:00,
2013-10-02 00:39:00,27.9,26.1,30.11,South,178,0.0,0.0,93,0.00,,,0.00,Wunderground v.1.15,2013-10-02 07:39:00,
2013-10-02 00:53:00,28.0,26.2,30.11,South,178,1.0,1.0,93,0.00,,,0.00,Wunderground v.1.15,2013-10-02 07:53:00,
2013-10-02 00:59:00,28.0,26.2,30.11,South,178,0.0,1.0,93,0.00,,,0.00,Wunderground v.1.15,2013-10-02 07:59:00,
2013-10-02 01:13:00,27.8,26.0,30.11,South,178,0.0,0.0,93,0.00,,,0.00,Wunderground v.1.15,2013-10-02 08:13:00,
2013-10-02 01:23:00,27.6,25.6,30.10,South,178,0.0,0.0,92,0.00,,,0.00,Wunderground v.1.15,2013-10-02 08:23:00,
2013-10-02 01:29:00,27.5,25.5,30.10,South,178,0.0,0.0,92,0.00,,,0.00,Wunderground v.1.15,2013-10-02 08:29:00,
2013-10-02 01:39:00,27.4,25.4,30.10,South,178,0.0,0.0,92,0.00,,,0.00,Wunderground v.1.15,2013-10-02 08:39:00,
2013-10-02 01:49:00,27.3,25.3,30.10,South,178,0.0,0.0,92,0.00,,,0.00,Wunderground v.1.15,2013-10-02 08:49:00,
2013-10-02 01:59:00,27.1,25.3,30.10,South,178,0.0,0.0,93,0.00,,,0.00,Wunderground v.1.15,2013-10-02 08:59:00,
2013-10-02 02:13:00,26.9,24.9,30.10,South,178,0.0,0.0,92,0.00,,,0.00,Wunderground v.1.15,2013-10-02 09:13:00,
2013-10-02 02:19:00,26.9,24.9,30.10,South,178,0.0,0.0,92,0.00,,,0.00,Wunderground v.1.15,2013-10-02 09:19:00,
2013-10-02 02:33:00,26.7,24.7,30.09,South,178,0.0,0.0,92,0.00,,,0.00,Wunderground v.1.15,2013-10-02 09:33:00,
2013-10-02 02:39:00,26.7,24.9,30.09,South,178,0.0,0.0,93,0.00,,,0.00,Wunderground v.1.15,2013-10-02 09:39:00,
2013-10-02 02:49:00,26.7,24.9,30.09,South,178,0.0,0.0,93,0.00,,,0.00,Wunderground v.1.15,2013-10-02 09:49:00,
2013-10-02 02:59:00,26.7,24.9,30.08,South,178,0.0,0.0,93,0.00,,,0.00,Wunderground v.1.15,2013-10-02 09:59:00,
2013-10-02 03:13:00,26.6,24.8,30.08,South,178,0.0,0.0,93,0.00,,,0.00,Wunderground v.1.15,2013-10-02 10:13:00,
2013-10-02 03:18:00,26.7,24.9,30.08,South,178,0.0,0.0,93,0.00,,,0.00,Wunderground v.1.15,2013-10-02 10:18:00,
2013-10-02 03:29:00,26.6,25.1,30.08,South,178,0.0,0.0,94,0.00,,,0.00,Wunderground v.1.15,2013-10-02 10:29:00,
2013-10-02 03:39:00,26.6,25.1,30.08,South,178,1.0,1.0,94,0.00,,,0.00,Wunderground v.1.15,2013-10-02 10:39:00,
2013-10-02 03:49:00,26.5,24.8,30.07,South,178,0.0,1.0,93,0.00,,,0.00,Wunderground v.1.15,2013-10-02 10:49:00,
2013-10-02 03:59:00,26.3,24.6,30.07,South,178,0.0,1.0,93,0.00,,,0.00,Wunderground v.1.15,2013-10-02 10:59:00,
2013-10-02 04:09:00,25.9,24.2,30.07,South,178,1.0,1.0,93,0.00,,,0.00,Wunderground v.1.15,2013-10-02 11:09:00,
2013-10-02 04:19:00,25.7,24.0,30.07,South,178,0.0,1.0,93,0.00,,,0.00,Wunderground v.1.15,2013-10-02 11:19:00,
2013-10-02 04:33:00,25.7,24.0,30.06,South,178,0.0,0.0,93,0.00,,,0.00,Wunderground v.1.15,2013-10-02 11:33:00,
2013-10-02 04:39:00,25.6,23.9,30.07,South,178,0.0,0.0,93,0.00,,,0.00,Wunderground v.1.15,2013-10-02 11:39:00,
2013-10-02 04:49:00,25.6,24.1,30.06,South,178,1.0,4.0,94,0.00,,,0.00,Wunderground v.1.15,2013-10-02 11:49:00,
2013-10-02 05:03:00,25.8,24.3,30.07,South,178,0.0,0.0,94,0.00,,,0.00,Wunderground v.1.15,2013-10-02 12:03:00,
2013-10-02 05:13:00,26.0,24.5,30.06,South,178,1.0,1.0,94,0.00,,,0.00,Wunderground v.1.15,2013-10-02 12:13:00,
2013-10-02 05:19:00,26.0,24.5,30.07,South,178,1.0,1.0,94,0.00,,,0.00,Wunderground v.1.15,2013-10-02 12:19:00,
2013-10-02 05:29:00,26.0,24.5,30.07,South,178,2.0,2.0,94,0.00,,,0.00,Wunderground v.1.15,2013-10-02 12:29:00,
2013-10-02 05:39:00,26.0,24.8,30.07,SSE,165,2.0,2.0,95,0.00,,,0.00,Wunderground v.1.15,2013-10-02 12:39:00,
2013-10-02 05:53:00,26.1,24.9,30.06,SSE,158,1.0,7.0,95,0.00,,,0.00,Wunderground v.1.15,2013-10-02 12:53:00,
2013-10-02 05:59:00,26.0,24.8,30.06,SSE,160,2.0,7.0,95,0.00,,,0.00,Wunderground v.1.15,2013-10-02 12:59:00,
2013-10-02 06:13:00,26.1,24.9,30.06,SSE,157,1.0,1.0,95,0.00,,,0.00,Wunderground v.1.15,2013-10-02 13:13:00,
2013-10-02 06:19:00,26.2,25.0,30.06,SSE,157,1.0,2.0,95,0.00,,,0.00,Wunderground v.1.15,2013-10-02 13:19:00,
2013-10-02 06:33:00,26.1,24.9,30.06,SSE,157,1.0,1.0,95,0.00,,,0.00,Wunderground v.1.15,2013-10-02 13:33:00,
2013-10-02 06:43:00,25.9,24.7,30.06,SSE,159,1.0,1.0,95,0.00,,,0.00,Wunderground v.1.15,2013-10-02 13:43:00,
2013-10-02 06:53:00,26.0,24.8,30.06,SSE,159,1.0,1.0,95,0.00,,,0.00,Wunderground v.1.15,2013-10-02 13:53:00,
2013-10-02 06:59:00,26.0,24.8,30.05,SSE,159,1.0,2.0,95,0.00,,,0.00,Wunderground v.1.15,2013-10-02 13:59:00,
2013-10-02 07:09:00,26.0,24.8,30.05,SSE,159,2.0,4.0,95,0.00,,,0.00,Wunderground v.1.15,2013-10-02 14:09:00,
2013-10-02 07:19:00,26.1,24.9,30.05,SSE,161,2.0,2.0,95,0.00,,,0.00,Wunderground v.1.15,2013-10-02 14:19:00,
2013-10-02 07:29:00,26.2,25.0,30.05,SSE,163,2.0,2.0,95,0.00,,,0.00,Wunderground v.1.15,2013-10-02 14:29:00,
2013-10-02 07:39:00,26.3,25.1,30.05,SSE,163,1.0,2.0,95,0.00,,,0.00,Wunderground v.1.15,2013-10-02 14:39:00,
2013-10-02 07:49:00,26.2,25.0,30.05,SSE,164,2.0,2.0,95,0.00,,,0.00,Wunderground v.1.15,2013-10-02 14:49:00,
2013-10-02 07:59:00,26.4,25.2,30.05,South,183,2.0,2.0,95,0.00,,,0.00,Wunderground v.1.15,2013-10-02 14:59:00,
2013-10-02 08:13:00,26.8,25.6,30.05,South,178,1.0,1.0,95,0.00,,,0.00,Wunderground v.1.15,2013-10-02 15:13:00,
2013-10-02 08:19:00,26.9,25.7,30.05,South,179,2.0,2.0,95,0.00,,,0.00,Wunderground v.1.15,2013-10-02 15:19:00,
2013-10-02 08:29:00,27.0,25.8,30.05,South,178,2.0,2.0,95,0.00,,,0.00,Wunderground v.1.15,2013-10-02 15:29:00,
2013-10-02 08:39:00,27.2,26.0,30.04,South,178,2.0,2.0,95,0.00,,,0.00,Wunderground v.1.15,2013-10-02 15:39:00,
2013-10-02 08:53:00,27.5,26.5,30.04,South,178,2.0,4.0,96,0.00,,,0.00,Wunderground v.1.15,2013-10-02 15:53:00,
2013-10-02 08:59:00,27.8,26.6,30.04,South,178,2.0,4.0,95,0.00,,,0.00,Wunderground v.1.15,2013-10-02 15:59:00,
2013-10-02 09:13:00,28.2,27.2,30.04,South,178,2.0,2.0,96,0.00,,,0.00,Wunderground v.1.15,2013-10-02 16:13:00,
2013-10-02 09:19:00,28.3,27.3,30.04,South,178,2.0,2.0,96,0.00,,,0.00,Wunderground v.1.15,2013-10-02 16:19:00,
2013-10-02 09:29:00,28.3,27.3,30.03,South,178,3.0,3.0,96,0.00,,,0.00,Wunderground v.1.15,2013-10-02 16:29:00,
2013-10-02 09:39:00,28.6,27.6,30.04,South,178,2.0,2.0,96,0.00,,,0.00,Wunderground v.1.15,2013-10-02 16:39:00,
2013-10-02 09:49:00,29.2,28.2,30.04,South,177,3.0,5.0,96,0.00,,,0.00,Wunderground v.1.15,2013-10-02 16:49:00,
2013-10-02 10:03:00,30.1,29.1,30.03,South,177,3.0,7.0,96,0.00,,,0.00,Wunderground v.1.15,2013-10-02 17:03:00,
2013-10-02 10:13:00,31.2,30.2,30.04,South,177,2.0,2.0,96,0.00,,,0.00,Wunderground v.1.15,2013-10-02 17:13:00,
2013-10-02 10:23:00,31.8,30.8,30.04,SSE,151,3.0,3.0,96,0.00,,,0.00,Wunderground v.1.15,2013-10-02 17:23:00,
2013-10-02 10:29:00,32.2,30.7,30.04,South,179,4.0,4.0,94,0.00,,,0.00,Wunderground v.1.15,2013-10-02 17:29:00,
2013-10-02 10:39:00,33.0,31.2,30.04,South,175,3.0,4.0,93,0.00,,,0.00,Wunderground v.1.15,2013-10-02 17:39:00,
2013-10-02 10:49:00,33.8,31.5,30.04,NNE,30,3.0,3.0,91,0.00,,,0.00,Wunderground v.1.15,2013-10-02 17:49:00,
2013-10-02 10:59:00,34.0,31.4,30.04,ESE,111,2.0,3.0,90,0.00,,,0.00,Wunderground v.1.15,2013-10-02 17:59:00,
2013-10-02 11:13:00,34.3,31.7,30.04,SSE,157,2.0,5.0,90,0.00,,,0.00,Wunderground v.1.15,2013-10-02 18:13:00,
2013-10-02 11:19:00,34.4,31.8,30.03,SW,215,2.0,5.0,90,0.00,,,0.00,Wunderground v.1.15,2013-10-02 18:19:00,
2013-10-02 11:29:00,34.8,31.9,30.03,SE,140,2.0,2.0,89,0.00,,,0.00,Wunderground v.1.15,2013-10-02 18:29:00,
2013-10-02 11:39:00,35.3,32.4,30.02,SE,146,2.0,2.0,89,0.00,,,0.00,Wunderground v.1.15,2013-10-02 18:39:00,
2013-10-02 11:49:00,35.9,33.0,30.02,SW,230,3.0,3.0,89,0.00,,,0.00,Wunderground v.1.15,2013-10-02 18:49:00,
2013-10-02 12:03:00,37.6,33.8,30.01,SW,236,2.0,2.0,86,0.00,,,0.00,Wunderground v.1.15,2013-10-02 19:03:00,
2013-10-02 12:13:00,38.3,34.2,30.01,SSE,157,2.0,2.0,85,0.00,,,0.00,Wunderground v.1.15,2013-10-02 19:13:00,
2013-10-02 12:23:00,38.7,34.0,30.00,SSE,153,2.0,6.0,83,0.00,,,0.00,Wunderground v.1.15,2013-10-02 19:23:00,
2013-10-02 12:29:00,39.5,34.8,30.00,SW,236,2.0,6.0,83,0.00,,,0.00,Wunderground v.1.15,2013-10-02 19:29:00,
2013-10-02 12:43:00,40.7,34.4,30.00,SSE,157,2.0,6.0,78,0.00,,,0.00,Wunderground v.1.15,2013-10-02 19:43:00,
2013-10-02 12:49:00,41.2,33.9,30.00,South,172,2.0,6.0,75,0.00,,,0.00,Wunderground v.1.15,2013-10-02 19:49:00,
2013-10-02 12:59:00,42.6,34.5,30.00,SSE,150,2.0,2.0,73,0.00,,,0.00,Wunderground v.1.15,2013-10-02 19:59:00,
2013-10-02 13:13:00,44.2,35.7,30.00,SE,134,3.0,8.0,72,0.00,,,0.00,Wunderground v.1.15,2013-10-02 20:13:00,
2013-10-02 13:19:00,45.1,35.5,30.00,SE,142,3.0,8.0,69,0.00,,,0.01,Wunderground v.1.15,2013-10-02 20:19:00,
2013-10-02 13:29:00,45.3,29.2,30.00,SE,129,6.0,7.0,53,0.00,,,0.01,Wunderground v.1.15,2013-10-02 20:29:00,
2013-10-02 13:39:00,47.2,30.9,29.99,South,186,4.0,5.0,53,0.00,,,0.01,Wunderground v.1.15,2013-10-02 20:39:00,
2013-10-02 13:49:00,47.8,30.0,29.99,NW,315,5.0,5.0,50,0.00,,,0.02,Wunderground v.1.15,2013-10-02 20:49:00,
2013-10-02 14:03:00,48.3,29.0,29.99,SSW,207,5.0,8.0,47,0.00,,,0.03,Wunderground v.1.15,2013-10-02 21:03:00,
2013-10-02 14:13:00,47.0,26.7,29.99,WSW,244,7.0,7.0,45,0.00,,,0.03,Wunderground v.1.15,2013-10-02 21:13:00,
2013-10-02 14:19:00,46.2,29.1,29.99,NW,310,7.0,7.0,51,0.00,,,0.03,Wunderground v.1.15,2013-10-02 21:19:00,
2013-10-02 14:29:00,45.7,28.6,29.99,WSW,252,6.0,10.0,51,0.00,,,0.03,Wunderground v.1.15,2013-10-02 21:29:00,
2013-10-02 14:43:00,45.5,29.3,30.00,SW,227,7.0,7.0,53,0.00,,,0.04,Wunderground v.1.15,2013-10-02 21:43:00,
2013-10-02 14:49:00,45.1,29.0,30.00,SW,217,6.0,7.0,53,0.00,,,0.04,Wunderground v.1.15,2013-10-02 21:49:00,
2013-10-02 15:03:00,44.9,28.3,30.00,SSW,202,7.0,7.0,52,0.00,,,0.04,Wunderground v.1.15,2013-10-02 22:03:00,
2013-10-02 15:19:00,45.2,30.0,30.00,SW,215,5.0,5.0,55,0.00,,,0.05,Wunderground v.1.15,2013-10-02 22:19:00,
2013-10-02 15:33:00,46.7,30.0,30.00,SSW,213,4.0,5.0,52,0.00,,,0.05,Wunderground v.1.15,2013-10-02 22:33:00,
2013-10-02 15:39:00,46.6,29.4,30.00,SW,232,4.0,5.0,51,0.00,,,0.05,Wunderground v.1.15,2013-10-02 22:39:00,
2013-10-02 15:48:00,46.2,30.9,30.00,WSW,243,5.0,7.0,55,0.00,,,0.05,Wunderground v.1.15,2013-10-02 22:48:00,
2013-10-02 15:53:00,46.3,31.0,30.00,WSW,251,4.0,4.0,55,0.00,,,0.05,Wunderground v.1.15,2013-10-02 22:53:00,
2013-10-02 15:59:00,46.2,32.2,30.00,SW,227,3.0,4.0,58,0.00,,,0.05,Wunderground v.1.15,2013-10-02 22:59:00,
2013-10-02 16:08:00,45.8,31.4,30.00,SW,220,4.0,7.0,57,0.00,,,0.06,Wunderground v.1.15,2013-10-02 23:08:00,
2013-10-02 16:13:00,45.4,31.0,30.00,SW,221,5.0,7.0,57,0.00,,,0.06,Wunderground v.1.15,2013-10-02 23:13:00,
2013-10-02 16:19:00,44.9,31.4,30.01,SSW,209,5.0,5.0,59,0.00,,,0.06,Wunderground v.1.15,2013-10-02 23:19:00,
2013-10-02 16:28:00,44.7,31.7,30.01,WSW,250,3.0,4.0,60,0.00,,,0.06,Wunderground v.1.15,2013-10-02 23:28:00,
2013-10-02 16:33:00,44.5,31.9,30.01,SW,229,3.0,5.0,61,0.00,,,0.06,Wunderground v.1.15,2013-10-02 23:33:00,
2013-10-02 16:39:00,44.2,31.6,30.01,SW,219,5.0,8.0,61,0.00,,,0.06,Wunderground v.1.15,2013-10-02 23:39:00,
2013-10-02 16:49:00,43.8,32.4,30.02,SW,219,5.0,5.0,64,0.00,,,0.06,Wunderground v.1.15,2013-10-02 23:49:00,
2013-10-02 16:53:00,43.6,32.6,30.02,SW,219,5.0,8.0,65,0.00,,,0.06,Wunderground v.1.15,2013-10-02 23:53:00,
2013-10-02 16:59:00,43.4,33.2,30.02,SW,216,5.0,5.0,67,0.00,,,0.07,Wunderground v.1.15,2013-10-02 23:59:00,
2013-10-02 17:08:00,43.4,33.2,30.01,NNE,16,3.0,3.0,67,0.00,,,0.07,Wunderground v.1.15,2013-10-03 00:08:00,
2013-10-02 17:19:00,43.4,33.2,30.02,SW,232,4.0,9.0,67,0.00,,,0.07,Wunderground v.1.15,2013-10-03 00:19:00,
2013-10-02 17:29:00,43.4,33.2,30.02,SW,214,7.0,9.0,67,0.00,,,0.07,Wunderground v.1.15,2013-10-03 00:29:00,
2013-10-02 17:39:00,44.0,33.0,30.02,West,269,5.0,9.0,65,0.00,,,0.07,Wunderground v.1.15,2013-10-03 00:39:00,
2013-10-02 17:49:00,44.1,33.1,30.03,SSW,209,6.0,13.0,65,0.00,,,0.07,Wunderground v.1.15,2013-10-03 00:49:00,
2013-10-02 17:59:00,42.9,32.7,30.03,WSW,257,6.0,6.0,67,0.00,,,0.07,Wunderground v.1.15,2013-10-03 00:59:00,
2013-10-02 18:13:00,41.2,32.9,30.02,SSW,211,6.0,6.0,72,0.00,,,0.07,Wunderground v.1.15,2013-10-03 01:13:00,
2013-10-02 18:19:00,40.7,32.7,30.02,SW,234,6.0,6.0,73,0.00,,,0.07,Wunderground v.1.15,2013-10-03 01:19:00,
2013-10-02 18:28:00,40.1,32.8,30.03,SSW,205,5.0,6.0,75,0.00,,,0.07,Wunderground v.1.15,2013-10-03 01:28:00,
2013-10-02 18:39:00,39.7,33.1,30.03,SW,217,6.0,6.0,77,0.00,,,0.07,Wunderground v.1.15,2013-10-03 01:39:00,
2013-10-02 18:53:00,39.4,33.1,30.03,SSW,207,4.0,4.0,78,0.00,,,0.07,Wunderground v.1.15,2013-10-03 01:53:00,
2013-10-02 19:03:00,39.2,32.9,30.03,SSW,213,2.0,2.0,78,0.00,,,0.07,Wunderground v.1.15,2013-10-03 02:03:00,
2013-10-02 19:13:00,39.2,33.2,30.04,SSW,213,1.0,1.0,79,0.00,,,0.07,Wunderground v.1.15,2013-10-03 02:13:00,
2013-10-02 19:23:00,39.2,33.2,30.04,SSW,213,1.0,1.0,79,0.00,,,0.07,Wunderground v.1.15,2013-10-03 02:23:00,
2013-10-02 19:29:00,39.2,33.5,30.04,SSW,213,1.0,1.0,80,0.00,,,0.07,Wunderground v.1.15,2013-10-03 02:29:00,
2013-10-02 19:39:00,39.1,33.5,30.04,SE,134,1.0,1.0,80,0.00,,,0.07,Wunderground v.1.15,2013-10-03 02:39:00,
2013-10-02 19:49:00,39.0,33.4,30.04,SW,223,1.0,1.0,80,0.00,,,0.07,Wunderground v.1.15,2013-10-03 02:49:00,
2013-10-02 20:03:00,38.9,33.6,30.04,SW,229,2.0,2.0,81,0.00,,,0.07,Wunderground v.1.15,2013-10-03 03:03:00,
2013-10-02 20:13:00,38.6,33.6,30.04,SW,229,1.0,1.0,82,0.00,,,0.07,Wunderground v.1.15,2013-10-03 03:13:00,
2013-10-02 20:23:00,38.4,33.7,30.04,SW,229,1.0,1.0,83,0.00,,,0.07,Wunderground v.1.15,2013-10-03 03:23:00,
2013-10-02 20:29:00,38.3,33.6,30.04,SW,229,1.0,1.0,83,0.00,,,0.07,Wunderground v.1.15,2013-10-03 03:29:00,
2013-10-02 20:38:00,38.2,33.5,30.04,SW,227,2.0,2.0,83,0.00,,,0.07,Wunderground v.1.15,2013-10-03 03:38:00,
2013-10-02 20:43:00,38.2,33.5,30.04,South,171,2.0,2.0,83,0.00,,,0.07,Wunderground v.1.15,2013-10-03 03:43:00,
2013-10-02 20:49:00,38.2,33.5,30.05,West,259,2.0,2.0,83,0.00,,,0.07,Wunderground v.1.15,2013-10-03 03:49:00,
2013-10-02 20:59:00,38.2,33.2,30.05,South,169,2.0,2.0,82,0.00,,,0.07,Wunderground v.1.15,2013-10-03 03:59:00,
2013-10-02 21:03:00,38.3,33.0,30.05,SW,217,1.0,1.0,81,0.00,,,0.07,Wunderground v.1.15,2013-10-03 04:03:00,
2013-10-02 21:08:00,38.3,33.0,30.05,SE,145,1.0,1.0,81,0.00,,,0.07,Wunderground v.1.15,2013-10-03 04:08:00,
2013-10-02 21:13:00,38.2,32.9,30.05,ENE,73,1.0,1.0,81,0.00,,,0.07,Wunderground v.1.15,2013-10-03 04:13:00,
2013-10-02 21:19:00,38.3,33.0,30.05,ESE,115,1.0,1.0,81,0.00,,,0.07,Wunderground v.1.15,2013-10-03 04:19:00,
2013-10-02 21:28:00,38.2,33.2,30.05,SE,136,1.0,2.0,82,0.00,,,0.07,Wunderground v.1.15,2013-10-03 04:28:00,
2013-10-02 21:33:00,38.1,33.1,30.05,SSE,153,2.0,2.0,82,0.00,,,0.07,Wunderground v.1.15,2013-10-03 04:33:00,
2013-10-02 21:43:00,37.9,33.2,30.05,SSE,162,3.0,4.0,83,0.00,,,0.07,Wunderground v.1.15,2013-10-03 04:43:00,
2013-10-02 21:49:00,37.8,33.1,30.06,SSW,211,2.0,2.0,83,0.00,,,0.07,Wunderground v.1.15,2013-10-03 04:49:00,
2013-10-02 21:59:00,37.6,33.5,30.06,SSW,211,1.0,1.0,85,0.00,,,0.07,Wunderground v.1.15,2013-10-03 04:59:00,
2013-10-02 22:08:00,37.3,33.5,30.06,SSW,212,0.0,1.0,86,0.00,,,0.07,Wunderground v.1.15,2013-10-03 05:08:00,
2013-10-02 22:19:00,36.9,33.1,30.05,South,181,1.0,1.0,86,0.00,,,0.07,Wunderground v.1.15,2013-10-03 05:19:00,
2013-10-02 22:33:00,36.7,32.9,30.06,South,169,1.0,1.0,86,0.00,,,0.07,Wunderground v.1.15,2013-10-03 05:33:00,
2013-10-02 22:39:00,36.6,32.5,30.06,SSE,147,2.0,4.0,85,0.00,,,0.07,Wunderground v.1.15,2013-10-03 05:39:00,
2013-10-02 22:48:00,36.6,32.2,30.06,SSE,155,2.0,2.0,84,0.00,,,0.07,Wunderground v.1.15,2013-10-03 05:48:00,
2013-10-02 22:53:00,36.6,32.2,30.06,SSE,155,1.0,1.0,84,0.00,,,0.07,Wunderground v.1.15,2013-10-03 05:53:00,
2013-10-02 22:59:00,36.5,32.1,30.07,SSE,155,1.0,2.0,84,0.00,,,0.07,Wunderground v.1.15,2013-10-03 05:59:00,
2013-10-02 23:13:00,36.1,32.3,30.07,SSE,163,0.0,0.0,86,0.00,,,0.07,Wunderground v.1.15,2013-10-03 06:13:00,
2013-10-02 23:19:00,36.1,32.3,30.07,SSE,163,0.0,1.0,86,0.00,,,0.07,Wunderground v.1.15,2013-10-03 06:19:00,
2013-10-02 23:28:00,35.8,32.0,30.07,SSE,163,0.0,0.0,86,0.00,,,0.07,Wunderground v.1.15,2013-10-03 06:28:00,
2013-10-02 23:33:00,35.7,31.9,30.07,South,183,0.0,1.0,86,0.00,,,0.07,Wunderground v.1.15,2013-10-03 06:33:00,
2013-10-02 23:43:00,35.4,31.9,30.08,South,183,1.0,1.0,87,0.00,,,0.07,Wunderground v.1.15,2013-10-03 06:43:00,
2013-10-02 23:48:00,35.2,31.7,30.08,South,183,0.0,1.0,87,0.00,,,0.07,Wunderground v.1.15,2013-10-03 06:48:00,
2013-10-02 23:53:00,35.1,31.6,30.08,South,183,0.0,1.0,87,0.00,,,0.07,Wunderground v.1.15,2013-10-03 06:53:00,
2013-10-02 23:59:00,35.0,31.5,30.08,South,183,0.0,1.0,87,0.00,,,0.07,Wunderground v.1.15,2013-10-03 06:59:00,